Terminal Aerodrome Forecast
Issued by NWS

Home | Current Version | Previous Version | Text Only | Print | Product List | Glossary Off
Versions: 1 2 3 4 5 6 7 8 9 10 11 12 13 14 15 16 17 18 19

000
FTUS43 KBIS 191700
TAFJMS
TAF
KJMS 191722Z 1918/2018 30006KT P6SM SKC
     FM192000 16009KT P6SM SCT150
     FM200700 16009KT P6SM VCTS SCT080 BKN100CB
     FM201100 23009KT P6SM SCT100
     FM201500 30009KT P6SM FEW080 SCT200=

USA.gov is the U.S. government's official web portal to all federal, state and local government web resources and services.